MET'MAP v2.0
soon released !

Expected late october,
this new version will be
more efficient, smarter,
and hosted on a brand new
server x3 powerfull...
...and still free !


Not compatible ?
Try the mobile version !

LOG IN : | Subscribe | Disclaimer | Who is Orbifly ? |
ICAO code :

TAF - DAUE El Golea - 02 Jun 2020 05:11 UTC - Data Source NOAA   


- Airport Elevation : 1306 ft
- IATA code : ELG
- No reported NOTAMs.


DAUE - El Golea

Latest METAR recorded : 2015/08/11 06:00 DAUE 110600Z 02008KT 4000 HZ NSC 27/14 Q1017
Expired Forecast.

Source NOAA


MET'MAP, your aeronautical weather chart ! - Copyright ORBIFLY December 2007

Programming & Development : Alexandra Zaïnal
Co-Developer : Marc-Olivier Méhu
Technical & hardware support : Manuel Goepfert
Concept & Financing : Baudouin d'Aumeries